Time;durP1;ratioP1;P1;durP2;ratioP2;P2;SDS_P1;SDS_P2;PMS_P1;PMS_P2;Temp;Humidity;BMP_temperature;BMP_pressure;BME280_temperature;BME280_humidity;BME280_pressure;Samples;Min_cycle;Max_cycle;Signal;HPM_P1;HPM_P2
2022/12/28 00:01:35;;;;;;;2.08;0.00;;;;;;;0.21;67.87;100768.00;5063810;28;20494;-70
2022/12/28 00:04:04;;;;;;;1.95;0.03;;;;;;;0.20;68.11;100759.44;5060841;28;20056;-70
2022/12/28 00:06:31;;;;;;;0.30;0.10;;;;;;;0.19;68.52;100762.81;5062640;28;20050;-70
2022/12/28 00:08:58;;;;;;;0.40;0.10;;;;;;;0.17;68.55;100764.50;5061672;28;20060;-71
2022/12/28 00:11:27;;;;;;;1.10;0.08;;;;;;;0.17;68.19;100764.50;5061456;28;20047;-70
2022/12/28 00:13:54;;;;;;;0.93;0.10;;;;;;;0.16;68.57;100777.28;5060662;28;20051;-70
2022/12/28 00:16:26;;;;;;;0.20;0.10;;;;;;;0.14;68.34;100761.84;5064359;28;20044;-70
2022/12/28 00:18:54;;;;;;;1.58;0.10;;;;;;;0.12;68.39;100760.94;5064329;28;20146;-70
2022/12/28 00:21:21;;;;;;;0.60;0.13;;;;;;;0.12;68.39;100775.50;5061618;28;20103;-70
2022/12/28 00:23:49;;;;;;;1.60;0.10;;;;;;;0.10;67.87;100777.16;5061524;28;20124;-70
2022/12/28 00:26:16;;;;;;;2.17;0.10;;;;;;;0.08;68.10;100774.53;5058569;28;20521;-70
2022/12/28 00:28:43;;;;;;;6.55;0.50;;;;;;;0.07;68.46;100774.50;5061527;28;20044;-70
2022/12/28 00:31:10;;;;;;;0.30;0.00;;;;;;;0.07;68.66;100777.94;5062325;28;20055;-70
2022/12/28 00:33:39;;;;;;;0.40;0.08;;;;;;;0.05;67.78;100774.44;5062346;28;20139;-70
2022/12/28 00:36:07;;;;;;;0.40;0.10;;;;;;;0.03;67.84;100776.13;5064241;28;20048;-70
2022/12/28 00:38:36;;;;;;;1.67;0.00;;;;;;;0.03;68.46;100781.28;5064378;28;20495;-70
2022/12/28 00:41:03;;;;;;;1.13;0.10;;;;;;;-0.02;67.89;100778.59;5067630;28;20048;-70
2022/12/28 00:43:30;;;;;;;6.13;0.15;;;;;;;0.01;68.38;100784.63;5059318;28;20048;-70
2022/12/28 00:45:57;;;;;;;2.30;0.10;;;;;;;-0.02;67.88;100798.25;5063741;28;20059;-70
2022/12/28 00:48:24;;;;;;;1.02;0.10;;;;;;;-0.02;67.69;100798.25;5064321;28;20048;-70
2022/12/28 00:50:52;;;;;;;1.55;0.10;;;;;;;-0.03;68.09;100788.81;5062057;28;20049;-70
2022/12/28 00:53:19;;;;;;;1.60;0.10;;;;;;;-0.04;68.10;100790.50;5061113;28;20041;-70
2022/12/28 00:55:46;;;;;;;1.27;0.10;;;;;;;-0.09;68.28;100786.09;5062508;28;20045;-70
2022/12/28 00:58:13;;;;;;;1.58;0.10;;;;;;;-0.06;68.87;100796.44;5060634;28;20132;-70
2022/12/28 01:00:40;;;;;;;0.70;0.10;;;;;;;-0.09;67.76;100786.09;5063815;28;20048;-70
2022/12/28 01:03:07;;;;;;;0.15;0.00;;;;;;;-0.08;67.87;100798.13;5060587;28;20422;-70
2022/12/28 01:05:34;;;;;;;0.93;0.10;;;;;;;-0.08;67.98;100792.97;5060435;28;20513;-70
2022/12/28 01:08:02;;;;;;;2.40;0.28;;;;;;;-0.10;67.96;100795.50;5060741;28;20040;-70
2022/12/28 01:10:29;;;;;;;1.55;0.20;;;;;;;-0.10;67.90;100797.19;5061021;28;20126;-70
2022/12/28 01:12:56;;;;;;;2.75;0.50;;;;;;;-0.11;67.76;100795.47;5063338;28;20059;-70
2022/12/28 01:15:23;;;;;;;0.20;0.10;;;;;;;-0.12;67.73;100793.72;5061883;28;20055;-70
2022/12/28 01:17:50;;;;;;;2.67;0.10;;;;;;;-0.14;68.19;100796.25;5058779;28;20413;-71
2022/12/28 01:20:17;;;;;;;0.85;0.15;;;;;;;-0.15;68.13;100786.81;5062512;28;20053;-70
2022/12/28 01:22:43;;;;;;;3.70;0.25;;;;;;;-0.16;68.37;100803.06;5062497;28;20135;-70
2022/12/28 01:25:12;;;;;;;0.20;0.10;;;;;;;-0.17;68.49;100792.72;5060168;28;20131;-71
2022/12/28 01:27:39;;;;;;;0.10;0.00;;;;;;;-0.18;67.97;100785.88;5064153;28;20052;-70
2022/12/28 01:30:07;;;;;;;1.30;0.10;;;;;;;-0.19;67.66;100790.13;5056905;28;20055;-70
2022/12/28 01:32:34;;;;;;;1.85;0.10;;;;;;;-0.20;68.30;100788.38;5061140;28;20047;-70
2022/12/28 01:35:01;;;;;;;1.38;0.10;;;;;;;-0.21;68.21;100791.78;5057465;28;20051;-70
2022/12/28 01:37:28;;;;;;;0.30;0.08;;;;;;;-0.21;68.26;100785.78;5064232;28;20045;-70
2022/12/28 01:39:55;;;;;;;1.05;0.10;;;;;;;-0.22;68.34;100778.94;5059030;28;20051;-70
2022/12/28 01:42:23;;;;;;;0.85;0.10;;;;;;;-0.26;67.94;100781.41;5066795;28;20051;-70
2022/12/28 01:44:51;;;;;;;0.20;0.10;;;;;;;-0.29;68.12;100783.88;5062664;28;20093;-70
2022/12/28 01:47:22;;;;;;;3.13;0.80;;;;;;;-0.28;67.74;100783.06;5061726;28;20047;-70
2022/12/28 01:49:57;;;;;;;4.07;0.10;;;;;;;-0.29;67.86;100783.88;5057309;28;20726;-70
2022/12/28 01:52:30;;;;;;;1.48;0.10;;;;;;;-0.31;67.83;100770.16;5058013;28;20129;-70
2022/12/28 01:55:01;;;;;;;0.82;0.10;;;;;;;-0.31;68.43;100777.84;5062579;28;20044;-70
2022/12/28 01:57:33;;;;;;;0.20;0.10;;;;;;;-0.32;68.56;100772.69;5060840;28;20525;-70
2022/12/28 02:00:02;;;;;;;3.70;0.13;;;;;;;-0.35;68.10;100773.47;5061435;28;20055;-70
2022/12/28 02:02:30;;;;;;;1.05;0.10;;;;;;;-0.35;67.96;100776.03;5059931;28;20051;-70
2022/12/28 02:04:58;;;;;;;0.45;0.22;;;;;;;-0.35;68.54;100783.72;5060395;28;20491;-70
2022/12/28 02:07:35;;;;;;;0.70;0.10;;;;;;;-0.36;68.25;100784.56;5059563;28;20464;-70
2022/12/28 02:10:03;;;;;;;0.75;0.10;;;;;;;-0.37;68.09;100793.09;5060565;28;20049;-71
2022/12/28 02:12:32;;;;;;;5.32;0.10;;;;;;;-0.40;68.81;100793.00;5060305;28;20051;-70
2022/12/28 02:14:59;;;;;;;1.95;0.08;;;;;;;-0.37;68.43;100797.34;5060507;28;20072;-70
2022/12/28 02:17:26;;;;;;;1.33;0.10;;;;;;;-0.39;68.35;100797.31;5060661;28;20132;-70
2022/12/28 02:19:53;;;;;;;1.45;0.10;;;;;;;-0.41;68.43;100792.97;5058980;28;20094;-71
2022/12/28 02:23:17;;;;;;;2.90;0.10;;;;;;;-0.41;68.76;100806.66;5058637;28;20942;-70
2022/12/28 02:26:17;;;;;;;7.03;0.10;;;;;;;-0.42;68.29;100798.94;5038664;28;20048;-70
2022/12/28 02:29:14;;;;;;;0.47;0.10;;;;;;;-0.44;68.50;100803.16;5061736;28;20490;-70
2022/12/28 02:31:44;;;;;;;0.03;0.00;;;;;;;-0.50;68.35;100807.28;5061612;28;20051;-70
2022/12/28 02:34:19;;;;;;;1.35;0.10;;;;;;;-0.51;67.96;100802.13;5060477;28;20048;-70
2022/12/28 02:36:53;;;;;;;1.58;0.10;;;;;;;-0.53;68.18;100803.78;5057999;28;20521;-70
2022/12/28 02:39:28;;;;;;;0.38;0.10;;;;;;;-0.50;68.61;100801.31;5060824;28;20135;-70
2022/12/28 02:41:56;;;;;;;2.17;0.08;;;;;;;-0.50;68.24;100803.88;5059028;28;20045;-70
2022/12/28 02:50:09;;;;;;;1.75;0.00;;;;;;;-0.53;68.57;100809.78;5051390;28;20079;-70
2022/12/28 02:53:01;;;;;;;0.50;0.03;;;;;;;-0.54;67.78;100808.06;5058920;28;20049;-70
2022/12/28 02:58:55;;;;;;;0.82;0.10;;;;;;;-0.56;68.26;100803.72;5061824;28;20118;-70
2022/12/28 03:01:39;;;;;;;2.33;0.10;;;;;;;-0.58;68.80;100798.53;5053790;28;20048;-70
2022/12/28 03:04:16;;;;;;;0.65;0.10;;;;;;;-0.59;68.20;100806.19;5061026;28;20054;-70
2022/12/28 03:09:41;;;;;;;0.08;0.00;;;;;;;-0.60;67.87;100804.44;5057186;28;20055;-70
2022/12/28 03:12:12;;;;;;;1.67;0.20;;;;;;;-0.61;68.08;100810.41;5061002;28;20048;-70
2022/12/28 03:14:43;;;;;;;0.65;0.10;;;;;;;-0.66;68.42;100800.00;5059432;28;20045;-70
2022/12/28 03:31:17;;;;;;;1.30;0.08;;;;;;;-0.68;68.52;100809.38;5063274;28;20453;-73
2022/12/28 03:33:49;;;;;;;0.43;0.10;;;;;;;-0.68;68.44;100805.09;5066149;28;20422;-75
2022/12/28 03:36:22;;;;;;;0.88;0.10;;;;;;;-0.70;68.39;100811.88;5063729;28;20059;-74
2022/12/28 03:38:55;;;;;;;1.00;0.10;;;;;;;-0.72;68.41;100808.41;5060661;28;20057;-74
2022/12/28 03:41:28;;;;;;;1.60;0.15;;;;;;;-0.71;68.32;100810.16;5062483;28;20045;-75
2022/12/28 03:43:59;;;;;;;1.27;0.00;;;;;;;-0.71;68.29;100805.03;5064612;28;20056;-74
2022/12/28 03:46:33;;;;;;;0.85;0.10;;;;;;;-0.71;68.32;100797.34;5064281;28;20413;-75
2022/12/28 03:49:02;;;;;;;1.45;0.08;;;;;;;-0.73;68.33;100798.97;5063345;28;20139;-74
2022/12/28 03:51:32;;;;;;;4.03;0.63;;;;;;;-0.74;68.89;100799.81;5063516;28;20051;-75
2022/12/28 03:53:59;;;;;;;1.40;0.60;;;;;;;-0.75;68.37;100794.63;5061280;28;20045;-74
2022/12/28 03:56:28;;;;;;;1.55;0.17;;;;;;;-0.76;68.39;100804.03;5065960;28;20425;-75
2022/12/28 03:58:55;;;;;;;4.47;0.10;;;;;;;-0.75;68.56;100805.75;5064003;28;20057;-75
2022/12/28 04:01:22;;;;;;;0.93;0.10;;;;;;;-0.75;68.53;100802.31;5063355;28;20040;-75
2022/12/28 04:03:50;;;;;;;0.30;0.15;;;;;;;-0.77;68.37;100812.56;5063430;28;20048;-74
2022/12/28 04:06:19;;;;;;;2.75;0.10;;;;;;;-0.78;68.25;100812.50;5061786;28;20510;-74
2022/12/28 04:08:47;;;;;;;0.65;0.10;;;;;;;-0.77;68.74;100816.78;5063153;28;20132;-74
2022/12/28 04:11:14;;;;;;;1.52;0.10;;;;;;;-0.77;68.65;100821.91;5061856;28;20494;-74
2022/12/28 04:13:41;;;;;;;0.30;0.10;;;;;;;-0.78;68.34;100817.63;5063144;28;20051;-74
2022/12/28 04:16:12;;;;;;;0.55;0.10;;;;;;;-0.79;68.36;100813.34;5061231;28;20128;-74
2022/12/28 04:18:40;;;;;;;0.75;0.10;;;;;;;-0.81;68.37;100820.97;5062175;28;20051;-75
2022/12/28 04:21:07;;;;;;;0.85;0.85;;;;;;;-0.81;68.15;100814.97;5064507;28;20499;-74
2022/12/28 04:23:36;;;;;;;0.45;0.10;;;;;;;-0.92;68.17;100801.84;5061778;28;20135;-74
2022/12/28 04:26:05;;;;;;;0.10;0.00;;;;;;;-0.82;68.60;100826.94;5064376;28;20052;-74
2022/12/28 04:28:33;;;;;;;0.95;0.10;;;;;;;-0.85;68.44;100824.28;5059305;28;20045;-75
2022/12/28 04:31:02;;;;;;;4.13;0.20;;;;;;;-0.83;68.16;100827.75;5065472;28;20486;-75
2022/12/28 04:33:29;;;;;;;1.10;0.08;;;;;;;-0.84;68.17;100823.44;5068484;28;20052;-75
2022/12/28 04:36:05;;;;;;;1.23;0.10;;;;;;;-0.83;68.85;100825.19;5060678;28;20057;-74
2022/12/28 04:38:32;;;;;;;0.82;0.10;;;;;;;-0.87;68.55;100828.50;5065241;28;20048;-75
2022/12/28 04:41:01;;;;;;;1.95;0.10;;;;;;;-0.85;68.53;100828.53;5062333;28;20041;-75
2022/12/28 04:43:29;;;;;;;0.85;0.10;;;;;;;-0.86;68.93;100832.78;5063046;28;20044;-75
2022/12/28 04:45:57;;;;;;;3.63;0.10;;;;;;;-0.86;68.43;100834.50;5062640;28;20099;-74
2022/12/28 04:48:24;;;;;;;2.33;0.30;;;;;;;-0.90;68.52;100833.53;5061693;28;20053;-75
2022/12/28 04:50:51;;;;;;;0.20;0.10;;;;;;;-0.86;68.83;100834.50;5063109;28;20131;-75
2022/12/28 04:53:18;;;;;;;2.08;0.10;;;;;;;-0.86;68.52;100826.78;5063936;28;20405;-74
2022/12/28 04:55:45;;;;;;;1.55;0.10;;;;;;;-0.87;67.98;100825.06;5064566;28;20044;-74
2022/12/28 04:58:13;;;;;;;2.17;0.10;;;;;;;-0.87;68.38;100819.94;5064686;28;20396;-74
2022/12/28 05:00:40;;;;;;;0.20;0.20;;;;;;;-0.88;68.38;100826.75;5057467;28;20050;-74
2022/12/28 05:03:07;;;;;;;2.35;0.10;;;;;;;-0.90;68.23;100828.41;5063804;28;20560;-74
2022/12/28 05:05:34;;;;;;;0.17;0.10;;;;;;;-0.96;68.67;100833.38;5060058;28;20392;-74
2022/12/28 05:08:02;;;;;;;1.98;0.68;;;;;;;-0.91;68.45;100848.06;5065081;28;20055;-74
2022/12/28 05:10:29;;;;;;;2.42;0.10;;;;;;;-0.92;68.20;100848.88;5065019;28;20775;-74
2022/12/28 05:12:56;;;;;;;2.58;0.15;;;;;;;-0.94;68.42;100844.50;5062444;28;20041;-75
2022/12/28 05:15:24;;;;;;;3.83;0.43;;;;;;;-0.95;68.40;100840.22;5064382;28;20607;-74
2022/12/28 05:17:51;;;;;;;0.85;0.05;;;;;;;-0.93;68.85;100843.72;5063562;28;20044;-74
2022/12/28 05:20:19;;;;;;;1.55;0.20;;;;;;;-0.93;68.20;100843.72;5059426;28;20045;-74
2022/12/28 05:22:46;;;;;;;0.50;0.10;;;;;;;-0.94;68.41;100847.97;5059874;28;20175;-74
2022/12/28 05:25:13;;;;;;;4.47;0.20;;;;;;;-0.94;68.68;100839.38;5060821;28;20059;-75
2022/12/28 05:27:39;;;;;;;0.40;0.10;;;;;;;-0.95;68.54;100833.38;5064169;28;20074;-74
2022/12/28 05:30:08;;;;;;;1.55;0.10;;;;;;;-0.96;68.98;100818.84;5058470;28;20059;-75
2022/12/28 05:32:36;;;;;;;0.20;0.10;;;;;;;-0.97;68.38;100805.97;5058976;28;20044;-74
2022/12/28 05:35:03;;;;;;;0.77;0.10;;;;;;;-0.98;68.73;100809.38;5062459;28;20058;-74
2022/12/28 05:37:30;;;;;;;6.13;0.30;;;;;;;-1.02;68.37;100808.41;5062812;28;20095;-75
2022/12/28 05:39:57;;;;;;;0.63;0.10;;;;;;;-1.03;68.55;100824.59;5064633;28;20143;-74
2022/12/28 05:42:24;;;;;;;1.20;0.10;;;;;;;-1.01;68.58;100835.78;5061718;28;20137;-74
2022/12/28 05:44:51;;;;;;;1.30;0.10;;;;;;;-1.03;68.50;100840.00;5063388;28;20447;-74
2022/12/28 05:47:17;;;;;;;0.63;0.10;;;;;;;-1.02;68.21;100848.56;5062233;28;20127;-75
2022/12/28 05:49:46;;;;;;;1.23;0.15;;;;;;;-1.02;68.02;100853.69;5059476;28;20070;-75
2022/12/28 05:52:13;;;;;;;1.40;0.10;;;;;;;-1.02;68.64;100866.53;5052578;28;20053;-75
2022/12/28 05:54:39;;;;;;;0.20;0.10;;;;;;;-1.02;68.11;100864.81;5062569;28;20047;-74
2022/12/28 05:57:06;;;;;;;1.17;0.10;;;;;;;-1.01;68.33;100865.69;5063834;28;20051;-75
2022/12/28 05:59:33;;;;;;;1.73;0.20;;;;;;;-1.10;68.65;100844.91;5063073;28;20048;-74
2022/12/28 06:02:00;;;;;;;1.00;0.15;;;;;;;-1.01;68.41;100852.88;5061611;28;20041;-75
2022/12/28 06:04:27;;;;;;;1.20;0.10;;;;;;;-1.02;67.96;100848.56;5061102;28;20049;-73
2022/12/28 06:06:55;;;;;;;0.52;0.10;;;;;;;-1.01;68.40;100853.72;5057747;28;20052;-74
2022/12/28 06:09:22;;;;;;;1.15;0.10;;;;;;;-1.02;68.12;100856.25;5064462;28;20040;-75
2022/12/28 06:11:49;;;;;;;2.85;0.10;;;;;;;-1.02;68.61;100869.09;5056717;28;20044;-75
2022/12/28 06:14:16;;;;;;;1.67;0.10;;;;;;;-1.02;68.44;100869.09;5064241;28;20053;-75
2022/12/28 06:16:43;;;;;;;0.50;0.10;;;;;;;-1.04;67.79;100860.47;5063976;28;20414;-73
2022/12/28 06:19:11;;;;;;;0.20;0.05;;;;;;;-1.04;68.46;100871.59;5060587;28;20047;-75
2022/12/28 06:21:40;;;;;;;1.95;0.20;;;;;;;-1.04;68.05;100863.91;5060649;28;20049;-75
2022/12/28 06:24:09;;;;;;;0.47;0.10;;;;;;;-1.05;67.97;100874.09;5063928;28;20234;-74
2022/12/28 06:26:37;;;;;;;0.60;0.05;;;;;;;-1.05;68.50;100874.09;5060168;28;20048;-75
2022/12/28 06:29:05;;;;;;;1.50;0.10;;;;;;;-1.07;68.19;100865.50;5061436;28;20402;-74
2022/12/28 06:31:33;;;;;;;1.50;0.10;;;;;;;-1.08;68.20;100867.22;5060969;28;20044;-76
2022/12/28 06:34:02;;;;;;;1.65;0.90;;;;;;;-1.11;68.19;100867.13;5064650;28;20041;-74
2022/12/28 06:36:30;;;;;;;2.97;0.10;;;;;;;-1.09;68.09;100882.53;5060510;28;20418;-75
2022/12/28 06:38:59;;;;;;;0.40;0.10;;;;;;;-1.10;68.29;100883.38;5062349;28;20051;-74
2022/12/28 06:41:28;;;;;;;2.95;0.10;;;;;;;-1.11;67.60;100886.72;5063178;28;20064;-74
2022/12/28 06:43:56;;;;;;;2.90;0.10;;;;;;;-1.13;67.72;100894.38;5058387;28;20835;-74
2022/12/28 06:46:24;;;;;;;2.30;0.17;;;;;;;-1.14;67.51;100896.09;5061368;28;20120;-75
2022/12/28 06:48:52;;;;;;;0.32;0.10;;;;;;;-1.15;68.32;100893.47;5059758;28;20516;-74
2022/12/28 06:51:21;;;;;;;1.38;0.10;;;;;;;-1.17;68.13;100890.88;5060752;28;20061;-74
2022/12/28 06:53:49;;;;;;;2.05;0.10;;;;;;;-1.18;68.24;100893.38;5061088;28;20049;-75
2022/12/28 06:56:17;;;;;;;0.28;0.10;;;;;;;-1.20;67.65;100890.75;5060928;28;20073;-74
2022/12/28 06:58:46;;;;;;;0.20;0.10;;;;;;;-1.22;67.84;100896.69;5061412;28;20056;-75
2022/12/28 07:01:15;;;;;;;3.80;0.10;;;;;;;-1.23;68.45;100890.66;5059734;28;20047;-74
2022/12/28 07:03:43;;;;;;;1.35;0.10;;;;;;;-1.25;68.41;100892.31;5061496;28;20558;-74
2022/12/28 07:06:11;;;;;;;2.30;0.13;;;;;;;-1.27;68.10;100888.81;5066139;28;20047;-74
2022/12/28 07:08:38;;;;;;;2.58;0.10;;;;;;;-1.28;68.24;100892.22;5065404;28;20053;-75
2022/12/28 07:11:07;;;;;;;0.30;0.10;;;;;;;-1.29;67.83;100884.47;5063664;28;20040;-74
2022/12/28 07:13:34;;;;;;;0.70;0.10;;;;;;;-1.30;67.89;100882.75;5061314;28;20052;-74
2022/12/28 07:16:04;;;;;;;3.33;0.10;;;;;;;-1.33;68.39;100878.38;5064543;28;20136;-74
2022/12/28 07:18:31;;;;;;;0.60;0.50;;;;;;;-1.35;67.98;100877.47;5065821;28;20044;-75
2022/12/28 07:21:00;;;;;;;4.07;0.20;;;;;;;-1.36;68.02;100878.28;5066077;28;20562;-75
2022/12/28 07:23:29;;;;;;;2.88;0.20;;;;;;;-1.38;68.28;100877.38;5065989;28;20045;-74
2022/12/28 07:25:57;;;;;;;2.15;0.52;;;;;;;-1.39;68.31;100884.19;5062097;28;20521;-74
2022/12/28 07:28:24;;;;;;;0.63;0.10;;;;;;;-1.41;68.35;100880.69;5062915;28;20056;-74
2022/12/28 07:30:51;;;;;;;0.98;0.35;;;;;;;-1.42;68.33;100888.34;5060808;28;20059;-74
2022/12/28 07:33:19;;;;;;;0.82;0.10;;;;;;;-1.42;68.13;100883.22;5060766;28;20056;-74
2022/12/28 07:35:46;;;;;;;1.23;0.10;;;;;;;-1.45;68.43;100873.75;5059506;28;20060;-74
2022/12/28 07:38:13;;;;;;;3.20;0.10;;;;;;;-1.46;68.52;100866.88;5060280;28;20045;-75
2022/12/28 07:40:40;;;;;;;0.80;0.10;;;;;;;-1.47;68.75;100861.72;5063453;28;20139;-74
2022/12/28 07:43:07;;;;;;;2.17;0.10;;;;;;;-1.48;68.22;100867.63;5062714;28;20047;-75
2022/12/28 07:45:34;;;;;;;3.40;0.20;;;;;;;-1.58;68.12;100853.69;5064528;28;20059;-76
2022/12/28 07:48:01;;;;;;;0.32;0.10;;;;;;;-1.50;68.41;100865.03;5062567;28;20051;-73
2022/12/28 07:50:29;;;;;;;0.45;0.10;;;;;;;-1.50;68.05;100866.75;5065900;28;20045;-74
2022/12/28 07:52:56;;;;;;;4.13;0.20;;;;;;;-1.50;68.60;100870.16;5065478;28;20403;-74
2022/12/28 07:55:23;;;;;;;4.88;0.20;;;;;;;-1.51;68.43;100880.34;5061682;28;20060;-75
2022/12/28 07:57:52;;;;;;;1.80;0.10;;;;;;;-1.53;68.63;100882.88;5061066;28;20059;-75
2022/12/28 08:00:19;;;;;;;0.93;0.15;;;;;;;-1.53;68.42;100887.16;5059265;28;20553;-75
2022/12/28 08:02:46;;;;;;;0.47;0.10;;;;;;;-1.54;68.20;100881.13;5063417;28;20059;-75
2022/12/28 08:05:13;;;;;;;1.35;0.10;;;;;;;-1.55;68.88;100884.50;5066261;28;20051;-74
2022/12/28 08:07:41;;;;;;;2.00;0.20;;;;;;;-1.56;68.73;100871.69;5064822;28;20067;-74
2022/12/28 08:10:08;;;;;;;0.70;0.10;;;;;;;-1.59;68.64;100864.75;5058291;28;20502;-74
2022/12/28 08:12:35;;;;;;;0.25;0.08;;;;;;;-1.60;68.30;100868.97;5064987;28;20486;-74
2022/12/28 08:15:02;;;;;;;4.15;0.20;;;;;;;-1.60;68.64;100879.22;5063725;28;20506;-74
2022/12/28 08:17:29;;;;;;;5.78;0.25;;;;;;;-1.61;68.61;100877.50;5064159;28;20127;-74
2022/12/28 08:19:56;;;;;;;1.05;0.57;;;;;;;-1.62;68.95;100883.47;5062195;28;20057;-75
2022/12/28 08:22:23;;;;;;;2.20;0.20;;;;;;;-1.63;68.58;100876.56;5067430;28;20479;-74
2022/12/28 08:24:52;;;;;;;2.22;0.10;;;;;;;-1.62;68.27;100880.03;5061076;28;20053;-74
2022/12/28 08:27:19;;;;;;;1.30;0.20;;;;;;;-1.64;68.25;100869.72;5062600;28;20048;-74
2022/12/28 08:29:46;;;;;;;0.22;0.13;;;;;;;-1.65;68.25;100862.88;5064353;28;20044;-74
2022/12/28 08:32:13;;;;;;;3.97;0.40;;;;;;;-1.65;68.15;100864.53;5063414;28;20430;-74
2022/12/28 08:34:39;;;;;;;3.35;0.10;;;;;;;-1.66;68.39;100863.66;5063293;28;20613;-75
2022/12/28 08:37:06;;;;;;;3.42;0.22;;;;;;;-1.67;68.40;100873.88;5065803;28;20052;-74
2022/12/28 08:39:33;;;;;;;3.15;0.20;;;;;;;-1.68;68.34;100874.69;5058533;28;20486;-74
2022/12/28 08:42:02;;;;;;;0.57;0.15;;;;;;;-1.68;68.15;100875.59;5061390;28;20040;-74
2022/12/28 08:44:29;;;;;;;0.73;0.20;;;;;;;-1.69;68.55;100878.94;5059043;28;20056;-73
2022/12/28 08:46:57;;;;;;;1.08;0.20;;;;;;;-1.70;68.67;100873.78;5062603;28;20047;-74
2022/12/28 08:49:23;;;;;;;0.85;0.20;;;;;;;-1.70;68.15;100872.09;5062188;28;20064;-75
2022/12/28 08:51:50;;;;;;;1.83;0.17;;;;;;;-1.70;68.25;100860.97;5064514;28;20487;-74
2022/12/28 08:54:17;;;;;;;1.40;0.40;;;;;;;-1.71;68.44;100860.09;5063813;28;20172;-75
2022/12/28 08:56:45;;;;;;;2.42;0.50;;;;;;;-1.72;68.43;100855.78;5062660;28;20052;-74
2022/12/28 08:59:17;;;;;;;0.85;0.20;;;;;;;-1.74;68.34;100854.88;5060995;28;20048;-74
2022/12/28 09:01:45;;;;;;;1.75;0.20;;;;;;;-1.73;68.24;100856.63;5060864;28;20124;-74
2022/12/28 09:04:15;;;;;;;0.95;0.40;;;;;;;-1.78;68.43;100853.03;5063910;28;20045;-75
2022/12/28 09:06:42;;;;;;;1.98;0.20;;;;;;;-1.74;68.65;100866.81;5059033;28;20048;-74
2022/12/28 09:09:12;;;;;;;4.43;0.35;;;;;;;-1.79;68.65;100851.31;5060224;28;20493;-74
2022/12/28 09:11:40;;;;;;;3.67;0.15;;;;;;;-1.79;68.41;100847.84;5056458;28;20045;-74
2022/12/28 09:14:09;;;;;;;3.45;0.28;;;;;;;-1.81;68.74;100847.81;5059796;28;20041;-74
2022/12/28 09:16:38;;;;;;;3.53;0.30;;;;;;;-1.79;68.93;100851.31;5056879;28;20047;-74
2022/12/28 09:19:07;;;;;;;4.55;0.20;;;;;;;-1.79;68.70;100847.84;5062295;28;20051;-75
2022/12/28 09:21:36;;;;;;;1.48;0.20;;;;;;;-1.84;69.13;100842.59;5058722;28;20052;-74
2022/12/28 09:24:04;;;;;;;5.00;0.75;;;;;;;-1.81;68.52;100848.69;5061192;28;20509;-75
2022/12/28 09:26:34;;;;;;;2.67;0.20;;;;;;;-1.81;69.14;100847.81;5060878;28;20048;-75
2022/12/28 09:29:03;;;;;;;1.05;0.20;;;;;;;-1.82;68.79;100849.50;5063210;28;20044;-74
2022/12/28 09:31:31;;;;;;;1.30;0.57;;;;;;;-1.84;68.67;100847.72;5060252;28;20049;-75
2022/12/28 09:34:00;;;;;;;1.30;0.20;;;;;;;-1.83;68.51;100846.88;5059685;28;20102;-74
2022/12/28 09:36:28;;;;;;;1.67;0.32;;;;;;;-1.85;68.79;100843.41;5061013;28;20536;-74
2022/12/28 09:38:55;;;;;;;2.50;0.43;;;;;;;-1.84;68.62;100848.59;5060999;28;20052;-74
2022/12/28 09:41:28;;;;;;;0.20;0.20;;;;;;;-1.85;68.37;100851.97;5063108;28;20048;-74
2022/12/28 09:44:04;;;;;;;5.28;0.20;;;;;;;-1.85;69.08;100841.75;5059480;28;20056;-74
2022/12/28 09:46:33;;;;;;;1.27;0.28;;;;;;;-1.86;68.76;100845.09;5063167;28;20077;-74
2022/12/28 09:49:05;;;;;;;3.83;0.25;;;;;;;-1.84;69.13;100840.03;5062422;28;20087;-75
2022/12/28 09:51:35;;;;;;;5.72;0.30;;;;;;;-1.84;68.73;100840.03;5059962;28;20055;-74
2022/12/28 09:54:03;;;;;;;2.85;0.75;;;;;;;-1.85;69.17;100833.16;5064102;28;20060;-74
2022/12/28 09:56:35;;;;;;;2.70;0.30;;;;;;;-1.86;69.07;100834.84;5062122;28;20046;-74
2022/12/28 09:59:05;;;;;;;1.38;0.20;;;;;;;-1.85;68.60;100826.38;5062236;28;20470;-74
2022/12/28 10:01:35;;;;;;;3.92;0.30;;;;;;;-1.84;69.08;100832.34;5061071;28;20196;-74
2022/12/28 10:04:04;;;;;;;6.82;0.38;;;;;;;-1.86;69.20;100828.88;5059757;28;20136;-74
2022/12/28 10:06:35;;;;;;;2.05;0.40;;;;;;;-1.84;68.64;100833.22;5061200;28;20136;-75
2022/12/28 10:09:05;;;;;;;5.68;0.35;;;;;;;-1.85;68.78;100831.50;5060842;28;20052;-74
2022/12/28 10:11:34;;;;;;;6.95;0.40;;;;;;;-1.84;69.03;100827.25;5053196;28;20043;-75
2022/12/28 10:14:14;;;;;;;2.92;0.60;;;;;;;-1.84;69.11;100828.09;5059738;28;20698;-74
2022/12/28 10:16:40;;;;;;;1.73;0.40;;;;;;;-1.84;69.00;100828.09;5061590;28;20135;-74
2022/12/28 10:19:09;;;;;;;1.63;0.50;;;;;;;-1.85;69.17;100817.78;5062144;28;20055;-74
2022/12/28 10:21:36;;;;;;;3.65;0.38;;;;;;;-1.83;69.21;100823.84;5064281;28;20041;-74
2022/12/28 10:24:07;;;;;;;4.35;0.38;;;;;;;-1.83;69.44;100816.16;5061379;28;20440;-75
2022/12/28 10:26:35;;;;;;;6.43;0.43;;;;;;;-1.82;69.67;100815.38;5062385;28;20063;-75
2022/12/28 10:29:02;;;;;;;1.65;0.30;;;;;;;-1.82;69.10;100805.13;5055794;28;20365;-74
2022/12/28 10:31:33;;;;;;;3.65;0.45;;;;;;;-1.82;69.29;100800.88;5059584;28;20437;-74
2022/12/28 10:34:01;;;;;;;3.05;0.35;;;;;;;-1.81;69.52;100797.47;5062479;28;20037;-74
2022/12/28 10:36:33;;;;;;;7.25;0.50;;;;;;;-1.79;69.24;100788.97;5061311;28;20573;-74
2022/12/28 10:39:01;;;;;;;5.13;0.68;;;;;;;-1.80;69.33;100790.66;5059825;28;20517;-74
2022/12/28 10:41:35;;;;;;;2.88;0.60;;;;;;;-1.78;69.48;100790.72;5061915;28;20052;-75
2022/12/28 10:44:14;;;;;;;3.55;1.38;;;;;;;-1.76;69.58;100781.41;5060927;28;20045;-74
2022/12/28 10:46:51;;;;;;;3.08;1.42;;;;;;;-1.76;69.25;100778.84;5061581;28;20044;-75
2022/12/28 10:49:18;;;;;;;5.97;1.45;;;;;;;-1.77;69.78;100770.25;5057253;28;20051;-75
2022/12/28 10:51:59;;;;;;;5.75;1.30;;;;;;;-1.76;69.73;100764.34;5063245;28;20048;-74
2022/12/28 10:54:26;;;;;;;5.82;1.33;;;;;;;-1.74;69.77;100767.78;5059884;28;20044;-75
2022/12/28 10:56:53;;;;;;;5.50;0.98;;;;;;;-1.73;69.49;100761.88;5058690;28;20053;-74
2022/12/28 10:59:26;;;;;;;2.08;0.75;;;;;;;-1.71;69.90;100759.34;5061767;28;20870;-74
2022/12/28 11:01:55;;;;;;;2.65;0.60;;;;;;;-1.70;70.12;100764.53;5057971;28;20927;-75
2022/12/28 11:04:24;;;;;;;2.10;0.50;;;;;;;-1.76;69.50;100750.69;5059195;28;20094;-74
2022/12/28 11:06:55;;;;;;;0.90;0.43;;;;;;;-1.66;69.90;100761.22;5061530;28;20049;-74
2022/12/28 11:09:24;;;;;;;2.30;0.60;;;;;;;-1.65;69.69;100760.44;5060345;28;20056;-74
2022/12/28 11:11:52;;;;;;;1.42;0.40;;;;;;;-1.63;69.79;100761.31;5060781;28;20132;-75
2022/12/28 11:14:29;;;;;;;4.03;0.60;;;;;;;-1.62;69.99;100751.97;5059653;28;20051;-74
2022/12/28 11:16:56;;;;;;;5.28;0.90;;;;;;;-1.62;69.72;100747.72;5060704;28;20047;-75
2022/12/28 11:19:24;;;;;;;6.93;1.83;;;;;;;-1.60;69.80;100743.47;5062436;28;20046;-74
2022/12/28 11:21:53;;;;;;;5.72;2.20;;;;;;;-1.56;69.84;100749.59;5058962;28;20052;-75
2022/12/28 11:24:26;;;;;;;2.80;1.15;;;;;;;-1.55;70.20;100743.63;5059448;28;20048;-74
2022/12/28 11:26:53;;;;;;;3.78;0.40;;;;;;;-1.51;70.04;100739.47;5060126;28;20419;-75
2022/12/28 11:29:20;;;;;;;4.28;0.82;;;;;;;-1.50;69.89;100736.97;5058414;28;20086;-75
2022/12/28 11:31:54;;;;;;;1.60;0.40;;;;;;;-1.48;69.97;100734.41;5058762;28;20052;-74
2022/12/28 11:34:26;;;;;;;3.70;0.60;;;;;;;-1.44;70.29;100738.84;5061473;28;20053;-74
2022/12/28 11:36:55;;;;;;;4.35;0.55;;;;;;;-1.42;70.13;100729.50;5056008;28;20559;-74
2022/12/28 11:39:42;;;;;;;3.13;0.70;;;;;;;-1.41;70.10;100732.09;5059475;28;20127;-75
2022/12/28 11:42:09;;;;;;;6.50;0.80;;;;;;;-1.39;70.31;100722.78;5061504;28;20490;-74
2022/12/28 11:44:50;;;;;;;3.60;0.50;;;;;;;-1.37;69.95;100721.13;5062319;28;20044;-75
2022/12/28 11:47:32;;;;;;;2.65;0.40;;;;;;;-1.34;70.31;100717.75;5057774;28;20128;-74
2022/12/28 11:50:38;;;;;;;1.60;0.50;;;;;;;-1.32;70.07;100713.56;5060272;28;20045;-74
2022/12/28 11:53:21;;;;;;;1.05;0.40;;;;;;;-1.29;70.22;100705.09;5065299;28;20490;-74
2022/12/28 11:55:58;;;;;;;5.15;0.40;;;;;;;-1.28;70.53;100702.59;5064573;28;20052;-74
2022/12/28 11:59:02;;;;;;;6.00;0.50;;;;;;;-1.24;70.49;100700.97;5065526;28;20043;-74
2022/12/28 12:01:49;;;;;;;3.17;0.68;;;;;;;-1.22;70.71;100696.75;5061258;28;20045;-75
2022/12/28 12:04:29;;;;;;;9.40;0.50;;;;;;;-1.21;70.06;100699.34;5060922;28;20570;-75